Terminal Aerodrome Forecast
Issued by NWS

Home | Current Version | Previous Version | Text Only | Print | Product List | Glossary On
Versions: 1 2 3 4 5 6 7 8 9 10 11 12 13 14 15
229
FTUS42 KTBW 241737
TAFRSW
TAF
KRSW 241737Z 2418/2518 21007KT P6SM VCTS BKN045CB BKN120
      TEMPO 2418/2422 VRB15G25KT 2SM +TSRA BKN025CB
     FM242200 23007KT P6SM VCTS BKN050CB BKN120
     FM250000 16004KT P6SM VCTS SCT045CB BKN120
     FM250200 VRB03KT P6SM SCT040 BKN120
     FM250600 00000KT P6SM FEW120 SCT250
     FM251600 12006KT P6SM SCT035 SCT250=

USA.gov is the U.S. government's official web portal to all federal, state and local government web resources and services.